x

Bay Of Campeche - 214 Nm Ne Of Veracruz, Mx (42055) Wave Buoy

9:50pm - Thu 24th Apr 2014 All times are UTC.

  • Sig Wave height 2.6ft
  • Swell Direction
  • Peak Period 6s
  • Average Period 4s
  • Wind
    13mph, 16mph gusts
  • Sea Temp 78°f
  • Air Temp 79°f
  • Sea Pressure 1008.2mb

More Historic Weather Station data

Upgrade to MSW Pro to gain access to the past 30 days of data for over 8000 Wavebouys and Weather Stations around the globe.

Join Pro

Comparision Forecast

View Surf forecast
   
Thu 04/24 9:50pm 2.5ft 6s 4s 13 16 mph 1008.2mb 78f 79f
8:50pm 2.5ft 6s 4s 16 18 mph 1008.7mb 78f 78f
7:50pm 2.5ft 5s 4s 16 18 mph 1009.8mb 78f 78f
6:50pm 2.5ft 5s 4s 13 16 mph 1010.5mb 78f 78f
5:50pm 3ft 5s 4s 13 16 mph 1011.4mb 78f 78f
4:50pm 3ft 5s 4s 16 18 mph 1012.1mb 78f 78f
3:50pm 3ft 5s 4s 13 16 mph 1012.3mb 78f 78f
2:50pm 3ft 5s 4s 18 20 mph 1011.7mb 78f 77f
1:50pm 2.5ft 4s 4s 18 20 mph 1011mb 78f 77f
12:50pm 2.5ft 4s 4s 18 20 mph 1010.5mb 78f 77f
11:50am 2.5ft 5s 4s 16 20 mph 1009.8mb 78f 77f
10:50am 2.5ft 5s 4s 16 18 mph 1009.4mb 78f 77f
9:50am 2.5ft 5s 4s 16 20 mph 1009.1mb 78f 76f
8:50am 2.5ft 4s 4s 18 20 mph 1009.2mb 78f 76f
7:50am 2.5ft 5s 4s 11 13 mph 1010.6mb 78f 76f
6:50am 2.5ft 4s 4s 11 13 mph 1011.4mb 78f 76f
5:50am 2.5ft 4s 4s 11 13 mph 1012mb 78f 77f
4:50am 2.5ft 4s 4s 13 18 mph 1012.6mb 78f 77f
3:50am 2.5ft 4s 4s 16 18 mph 1012.2mb 78f 77f
2:50am 2.5ft 4s 4s 16 20 mph 1011.8mb 78f 77f
1:50am 2.5ft 3s 4s 18 20 mph 1011mb 78f 77f
12:50am 2ft 4s 4s 18 20 mph 1010.5mb 78f 76f
Wed 04/23 11:50pm 2ft 4s 4s 16 18 mph 1010.5mb 78f 76f
10:50pm 1.6ft 3s 4s 13 16 mph 1010.8mb 78f 76f
9:50pm 1.6ft 4s 4s 13 16 mph 1010.9mb 78f 76f
8:50pm 1.6ft 3s 3s 13 16 mph 1011.2mb 78f 76f
7:50pm  -   -   -  13 18 mph 1011.8mb 78f 76f
6:50pm  -   -   -  13 18 mph 1012.8mb 78f 76f
5:50pm  -   -   -  11 16 mph 1013.8mb 78f 76f
4:50pm  -   -   -  11 16 mph 1014.6mb 78f 75f
3:50pm  -   -   -  13 16 mph 1014.6mb 78f 75f
2:50pm  -   -   -  13 16 mph 1014.4mb 77f 75f
1:50pm  -   -   -  13 16 mph 1013.6mb 77f 75f
12:50pm 1.6ft 5s 4s 13 16 mph 1013.4mb 77f 75f
11:50am 1.3ft 5s 4s 9 13 mph 1013.2mb 77f 74f
10:50am 1.6ft 5s 4s 7 9 mph 1013.1mb 78f 74f
9:50am 1.6ft 4s 4s 7 9 mph 1013.1mb 78f 74f
8:50am 1.6ft 5s 4s 9 11 mph 1013.1mb 78f 74f
7:50am 1.6ft 5s 4s 9 11 mph 1013.7mb 78f 75f
6:50am 1.6ft 5s 4s 7 11 mph 1014.6mb 78f 75f
5:50am 1.6ft 5s 4s 9 11 mph 1015mb 78f 75f
4:50am 2ft 5s 4s 9
mph
1015.5mb 78f 75f
3:50am 2ft 5s 4s 9 11 mph 1015.1mb 78f 75f
2:50am 2ft 5s 4s 9 13 mph 1014.3mb 78f 75f
1:50am 2ft 5s 4s 11 13 mph 1013.4mb 78f 75f
12:50am 2ft 5s 4s 11 13 mph 1013mb 78f 75f
Tue 04/22 11:50pm 2ft 6s 4s 9 11 mph 1012.5mb 78f 76f
10:50pm 2ft 5s 4s 7 9 mph 1012.7mb 78f 76f
9:50pm 2ft 6s 4s 4 7 mph 1013.2mb 78f 76f
8:50pm 2ft 5s 4s 9 11 mph 1013.3mb 78f 76f
7:50pm 2ft 5s 4s 9 11 mph 1014mb 78f 76f
6:50pm 2.5ft 5s 4s 11 13 mph 1014.5mb 78f 75f
5:50pm 2.5ft 5s 4s 16 18 mph 1014.8mb 78f 75f
4:50pm 2.5ft 5s 4s 18 20 mph 1015mb 78f 75f
3:50pm 2ft 5s 4s 16 18 mph 1015.4mb 78f 75f
2:50pm 2.5ft 5s 4s 13 16 mph 1015.8mb 78f 74f
1:50pm 2.5ft 5s 4s 13 16 mph 1015.8mb 78f 74f
12:50pm 2.5ft 5s 4s 16 18 mph 1015.6mb 78f 74f
11:50am 2.5ft 5s 4s 13 18 mph 1015.5mb 77f 74f
10:50am 2.5ft 5s 4s 13 16 mph 1015.2mb 77f 75f
9:50am 2.5ft 5s 4s 11 16 mph 1015.2mb 77f 75f
8:50am 2.5ft 5s 4s 9 11 mph 1014.8mb 77f 75f
7:50am 2.5ft 5s 4s 11 13 mph 1014.6mb 77f 75f
6:50am 3ft 5s 4s 11 13 mph 1015.1mb 78f 76f
5:50am 3ft 6s 4s 13 16 mph 1015.3mb 78f 76f
4:50am 3ft 5s 4s 13 18 mph 1015.6mb 78f 76f
3:50am 3ft 6s 4s 13 16 mph 1015.7mb 78f 77f
2:50am 3ft 6s 4s 16 18 mph 1015mb 78f 77f
1:50am 3.5ft 6s 5s 13 16 mph 1014.9mb 78f 77f
12:50am 3.5ft 5s 4s 13 16 mph 1014.2mb 78f 77f
Mon 04/21 11:50pm 3.5ft 6s 5s 13 16 mph 1013.8mb 78f 77f
10:50pm 3.5ft 6s 5s 13 16 mph 1013.8mb 78f 77f
9:50pm 3.5ft 6s 5s 11 13 mph 1014.5mb 78f 77f
8:50pm 3.5ft 6s 5s 11 13 mph 1015mb 78f 77f
7:50pm 3.5ft 5s 5s 13 16 mph 1015.5mb 78f 77f
6:50pm 3.5ft 6s 5s 11 13 mph 1016.5mb 78f 77f
5:50pm 3.5ft 6s 5s 11 13 mph 1017.2mb 78f 77f
4:50pm 3.5ft 5s 4s 16
mph
1017.5mb 78f 77f
3:50pm 3.5ft 7s 4s 16 18 mph 1017.6mb 77f 76f
2:50pm 3.5ft 5s 4s 18 20 mph 1017.5mb 77f 76f
1:50pm 3.5ft 5s 4s 18 22 mph 1017mb 77f 76f
12:50pm 3.5ft 7s 4s 18 20 mph 1017mb 77f 76f
11:50am 3.5ft 7s 4s 18 20 mph 1016.4mb 77f 75f
10:50am 3.5ft 6s 5s 18 20 mph 1015.9mb 77f 75f
9:50am 3.5ft 8s 5s 16 20 mph 1015.7mb 77f 75f
8:50am 3.5ft 6s 5s 13 18 mph 1016mb 77f 75f
7:50am 3.5ft 8s 5s 13 16 mph 1016.4mb 77f 75f
6:50am 3.5ft 7s 5s 13 16 mph 1017.1mb 77f 75f
5:50am 3.5ft 7s 5s 13 16 mph 1017.6mb 77f 75f
4:50am 3.5ft 7s 5s 16 18 mph 1017.7mb 77f 75f
3:50am 3.5ft 8s 5s 16 18 mph 1018mb 77f 76f
2:50am 3.5ft 8s 5s 13 18 mph 1017.8mb 78f 76f
1:50am 3.5ft 5s 5s 13 16 mph 1017.3mb 78f 76f
12:50am 3.5ft 8s 5s 16 18 mph 1016.5mb 78f 76f
Sun 04/20 11:50pm 3.5ft 6s 5s 16 18 mph 1016.2mb 78f 76f